Time;durP1;ratioP1;P1;durP2;ratioP2;P2;SDS_P1;SDS_P2;PMS_P1;PMS_P2;Temp;Humidity;BMP_temperature;BMP_pressure;BME280_temperature;BME280_humidity;BME280_pressure;Samples;Min_cycle;Max_cycle;Signal;HPM_P1;HPM_P2
2021/04/14 00:00:25;;;;;;;3.93;3.50;;;3.90;1.00;;;;;;5027595;28;20190;-78
2021/04/14 00:02:51;;;;;;;4.60;3.53;;;3.90;1.00;;;;;;5033098;28;20257;-79
2021/04/14 00:05:24;;;;;;;4.45;3.20;;;3.80;1.00;;;;;;5029893;28;20206;-79
2021/04/14 00:07:50;;;;;;;4.07;3.60;;;3.80;1.00;;;;;;5028979;28;20202;-75
2021/04/14 00:10:25;;;;;;;5.80;3.53;;;3.80;1.00;;;;;;5031552;28;20190;-79
2021/04/14 00:12:51;;;;;;;6.55;3.90;;;3.80;1.00;;;;;;5031187;28;20182;-79
2021/04/14 00:15:23;;;;;;;5.90;3.73;;;3.80;1.00;;;;;;5027656;28;20644;-79
2021/04/14 00:17:50;;;;;;;4.32;3.70;;;3.80;1.00;;;;;;5030560;28;20448;-78
2021/04/14 00:20:15;;;;;;;4.45;3.50;;;3.80;1.00;;;;;;5029296;28;20186;-79
2021/04/14 00:22:41;;;;;;;4.30;3.30;;;3.80;1.00;;;;;;5029472;28;20656;-78
2021/04/14 00:25:10;;;;;;;4.00;3.60;;;3.70;1.00;;;;;;5031233;28;20202;-78
2021/04/14 00:27:36;;;;;;;5.55;3.85;;;3.70;1.00;;;;;;5017139;28;20493;-78
2021/04/14 00:30:06;;;;;;;4.45;3.70;;;3.60;1.00;;;;;;5028124;28;20243;-79
2021/04/14 00:32:31;;;;;;;4.53;3.42;;;3.60;1.00;;;;;;5025761;28;20190;-80
2021/04/14 00:34:57;;;;;;;5.50;3.53;;;3.60;1.00;;;;;;5024531;28;20182;-79
2021/04/14 00:37:22;;;;;;;5.93;3.93;;;3.60;1.00;;;;;;5030519;28;20280;-79
2021/04/14 00:39:48;;;;;;;6.10;3.57;;;3.60;1.00;;;;;;5031505;28;20652;-79
2021/04/14 00:42:14;;;;;;;4.63;3.40;;;3.60;1.00;;;;;;5027820;28;20187;-77
2021/04/14 00:44:39;;;;;;;8.10;4.33;;;3.50;1.00;;;;;;5028651;28;20225;-78
2021/04/14 00:47:05;;;;;;;4.37;3.60;;;3.50;1.00;;;;;;5028466;28;20703;-72
2021/04/14 00:49:30;;;;;;;4.67;3.67;;;3.40;1.00;;;;;;5031401;28;20261;-79
2021/04/14 00:51:56;;;;;;;4.07;3.50;;;3.40;1.00;;;;;;5031863;28;20178;-79
2021/04/14 00:54:21;;;;;;;6.33;3.67;;;3.30;1.00;;;;;;5031151;28;20341;-79
2021/04/14 00:56:48;;;;;;;3.77;3.43;;;3.30;1.00;;;;;;5031151;28;20524;-79
2021/04/14 00:59:14;;;;;;;4.18;3.50;;;3.20;1.00;;;;;;5030386;28;20908;-78
2021/04/14 01:01:39;;;;;;;4.20;3.80;;;3.20;1.00;;;;;;5029686;28;20178;-80
2021/04/14 01:04:05;;;;;;;8.93;4.27;;;3.20;1.00;;;;;;5029896;28;20182;-79
2021/04/14 01:06:30;;;;;;;7.10;3.97;;;3.20;1.00;;;;;;5030989;28;20241;-78
2021/04/14 01:08:57;;;;;;;4.37;3.77;;;3.20;1.00;;;;;;5030960;28;20179;-80
2021/04/14 01:11:24;;;;;;;4.85;3.75;;;3.10;1.00;;;;;;5028271;28;20710;-77
2021/04/14 01:13:50;;;;;;;4.68;3.95;;;3.10;1.00;;;;;;5028405;28;20262;-78
2021/04/14 01:16:16;;;;;;;5.50;4.22;;;3.10;1.00;;;;;;5030933;28;20285;-78
2021/04/14 01:18:42;;;;;;;4.77;3.90;;;3.10;1.00;;;;;;5027770;28;20269;-79
2021/04/14 01:21:12;;;;;;;5.60;4.10;;;3.10;1.00;;;;;;5030411;28;20454;-75
2021/04/14 01:23:38;;;;;;;4.38;3.97;;;3.10;1.00;;;;;;5027860;28;20572;-79
2021/04/14 01:26:05;;;;;;;5.03;4.40;;;3.10;1.00;;;;;;5029063;28;20187;-78
2021/04/14 01:28:34;;;;;;;6.10;4.07;;;3.10;1.00;;;;;;5029297;28;20188;-78
2021/04/14 01:31:01;;;;;;;4.90;4.40;;;3.00;1.00;;;;;;5029419;28;20179;-80
2021/04/14 01:33:31;;;;;;;6.20;4.18;;;3.10;1.00;;;;;;5025023;28;20187;-78
2021/04/14 01:35:57;;;;;;;6.15;4.47;;;3.10;1.00;;;;;;5034283;28;20213;-81
2021/04/14 01:38:23;;;;;;;5.55;3.83;;;3.00;1.00;;;;;;5025389;28;20288;-79
2021/04/14 01:40:49;;;;;;;4.33;3.80;;;3.00;1.00;;;;;;5032617;28;20268;-79
2021/04/14 01:43:14;;;;;;;6.37;4.43;;;3.00;1.00;;;;;;5031176;28;20444;-80
2021/04/14 01:45:43;;;;;;;4.73;4.10;;;2.90;1.00;;;;;;5030285;28;20186;-77
2021/04/14 01:48:09;;;;;;;5.90;4.53;;;3.00;1.00;;;;;;5030322;28;20217;-79
2021/04/14 01:50:36;;;;;;;5.80;4.38;;;3.00;1.00;;;;;;5029100;28;20193;-79
2021/04/14 01:53:04;;;;;;;5.90;4.53;;;2.90;1.00;;;;;;5016771;28;20190;-78
2021/04/14 01:55:30;;;;;;;5.80;4.50;;;2.80;1.00;;;;;;5029502;28;20182;-79
2021/04/14 01:57:58;;;;;;;3.83;3.43;;;2.80;1.00;;;;;;4999192;28;20191;-77
2021/04/14 02:00:53;;;;;;;8.70;4.10;;;2.80;1.00;;;;;;5025884;28;21111;-78
2021/04/14 02:03:19;;;;;;;5.60;4.20;;;2.80;1.00;;;;;;5013516;28;20237;-77
2021/04/14 02:05:45;;;;;;;5.07;3.83;;;2.70;1.00;;;;;;5031733;28;20229;-77
2021/04/14 02:08:11;;;;;;;5.30;4.43;;;2.60;1.00;;;;;;5045797;28;20218;-78
2021/04/14 02:10:37;;;;;;;11.30;4.60;;;2.60;4.20;;;;;;5028779;28;20627;-77
2021/04/14 02:13:14;;;;;;;6.63;4.60;;;2.60;7.50;;;;;;5023770;28;20198;-77
2021/04/14 02:15:40;;;;;;;6.20;5.28;;;2.60;6.20;;;;;;5033124;28;20216;-77
2021/04/14 02:18:06;;;;;;;5.27;4.03;;;2.60;6.20;;;;;;5034682;28;20183;-79
2021/04/14 02:20:33;;;;;;;5.85;4.18;;;2.50;8.00;;;;;;5046581;28;20553;-77
2021/04/14 02:22:59;;;;;;;6.10;4.78;;;2.50;9.80;;;;;;5032751;28;20203;-78
2021/04/14 02:25:25;;;;;;;5.93;4.40;;;2.50;11.30;;;;;;5032124;28;20272;-79
2021/04/14 02:27:51;;;;;;;6.05;5.10;;;2.50;12.50;;;;;;5032265;28;20306;-78
2021/04/14 02:30:27;;;;;;;6.68;4.10;;;2.40;13.70;;;;;;5028296;28;20190;-77
2021/04/14 02:32:54;;;;;;;5.00;4.18;;;2.40;13.80;;;;;;5030994;28;20275;-77
2021/04/14 02:35:24;;;;;;;8.13;4.38;;;2.40;15.00;;;;;;5031615;28;20220;-78
2021/04/14 02:37:51;;;;;;;8.10;4.60;;;2.40;17.60;;;;;;5031217;28;20193;-80
2021/04/14 02:40:17;;;;;;;9.00;5.20;;;2.40;19.20;;;;;;5035300;28;20189;-78
2021/04/14 02:42:43;;;;;;;6.00;4.25;;;2.40;21.70;;;;;;5021507;28;20296;-79
2021/04/14 02:45:11;;;;;;;4.78;4.28;;;2.40;23.90;;;;;;5031980;28;20192;-79
2021/04/14 02:47:37;;;;;;;6.80;4.95;;;2.40;25.60;;;;;;5032264;28;20197;-72
2021/04/14 02:50:05;;;;;;;6.10;4.50;;;2.30;28.50;;;;;;5032542;28;20670;-80
2021/04/14 02:52:31;;;;;;;5.95;4.80;;;2.40;27.30;;;;;;5029924;28;20231;-80
2021/04/14 02:54:57;;;;;;;7.50;4.80;;;2.40;27.10;;;;;;5033791;28;20831;-81
2021/04/14 02:57:23;;;;;;;6.57;4.67;;;2.30;27.70;;;;;;5031153;28;20944;-79
2021/04/14 02:59:48;;;;;;;6.20;4.63;;;2.30;28.20;;;;;;5032946;28;20190;-79
2021/04/14 03:02:14;;;;;;;6.40;5.40;;;2.20;29.80;;;;;;5022920;28;20533;-79
2021/04/14 03:04:39;;;;;;;5.77;4.87;;;2.20;30.80;;;;;;5032180;28;20188;-79
2021/04/14 03:07:05;;;;;;;6.20;4.53;;;2.20;33.30;;;;;;5031687;28;20226;-78
2021/04/14 03:09:30;;;;;;;7.27;4.70;;;2.20;34.60;;;;;;5031234;28;20184;-80
2021/04/14 03:11:56;;;;;;;7.37;5.23;;;2.10;35.60;;;;;;5027173;28;20174;-79
2021/04/14 03:14:22;;;;;;;6.53;5.03;;;2.10;36.20;;;;;;5027974;28;20202;-77
2021/04/14 03:16:47;;;;;;;4.70;4.30;;;2.10;37.80;;;;;;5031916;28;20182;-79
2021/04/14 03:19:13;;;;;;;5.77;5.00;;;2.10;39.50;;;;;;5033709;28;20188;-79
2021/04/14 03:21:38;;;;;;;6.90;4.60;;;2.00;40.00;;;;;;5030753;28;20207;-78
2021/04/14 03:24:05;;;;;;;5.37;4.67;;;2.00;41.20;;;;;;5030531;28;20206;-78
2021/04/14 03:26:30;;;;;;;7.28;4.90;;;2.00;42.20;;;;;;5031348;28;20216;-72
2021/04/14 03:28:56;;;;;;;5.60;4.43;;;1.90;45.00;;;;;;5030875;28;20193;-79
2021/04/14 03:31:21;;;;;;;7.90;4.87;;;1.90;46.90;;;;;;5032167;28;20186;-79
2021/04/14 03:33:47;;;;;;;5.87;5.03;;;1.90;47.70;;;;;;5030540;28;20201;-79
2021/04/14 03:36:12;;;;;;;5.97;5.30;;;1.90;47.60;;;;;;5031645;28;20208;-79
2021/04/14 03:38:38;;;;;;;6.17;5.43;;;1.90;48.60;;;;;;5030202;28;20205;-80
2021/04/14 03:41:04;;;;;;;9.90;5.07;;;1.80;51.60;;;;;;5031716;28;20190;-81
2021/04/14 03:43:31;;;;;;;7.00;5.40;;;1.80;52.50;;;;;;5030311;28;20193;-79
2021/04/14 03:45:58;;;;;;;7.47;5.05;;;1.90;52.20;;;;;;5029308;28;20675;-80
2021/04/14 03:48:25;;;;;;;6.50;4.78;;;1.90;53.70;;;;;;5032507;28;20260;-81
2021/04/14 03:50:51;;;;;;;6.63;5.38;;;1.80;58.10;;;;;;5031173;28;20654;-81
2021/04/14 03:53:25;;;;;;;7.33;5.23;;;1.80;61.60;;;;;;5031112;28;20197;-80
2021/04/14 03:56:12;;;;;;;5.70;4.70;;;1.80;63.80;;;;;;5043348;28;20446;-78
2021/04/14 03:58:39;;;;;;;7.50;5.60;;;1.80;66.60;;;;;;5031114;28;20193;-79
2021/04/14 04:01:12;;;;;;;10.77;5.70;;;1.80;64.40;;;;;;5031185;28;20185;-80
2021/04/14 04:03:38;;;;;;;10.13;5.55;;;1.80;64.70;;;;;;5031036;28;20190;-79
2021/04/14 04:06:04;;;;;;;8.43;5.65;;;1.70;64.40;;;;;;5029690;28;20233;-79
2021/04/14 04:08:31;;;;;;;6.32;4.90;;;1.70;68.10;;;;;;5031460;28;20227;-79
2021/04/14 04:10:56;;;;;;;8.47;5.60;;;1.70;69.50;;;;;;5025858;28;20191;-78
2021/04/14 04:13:22;;;;;;;5.00;4.50;;;1.70;72.70;;;;;;5029199;28;20454;-76
2021/04/14 04:15:47;;;;;;;6.97;5.10;;;1.70;74.30;;;;;;5027771;28;20234;-77
2021/04/14 04:18:13;;;;;;;8.70;6.17;;;1.70;73.80;;;;;;5020008;28;20279;-79
2021/04/14 04:20:39;;;;;;;8.77;6.03;;;1.70;76.90;;;;;;5021160;28;20259;-79
2021/04/14 04:23:06;;;;;;;6.90;6.20;;;1.60;81.50;;;;;;5019688;28;20522;-78
2021/04/14 04:25:32;;;;;;;10.55;5.88;;;1.60;84.90;;;;;;5022200;28;20445;-78
2021/04/14 04:27:58;;;;;;;6.83;6.10;;;1.70;88.20;;;;;;5031160;28;20753;-79
2021/04/14 04:30:25;;;;;;;9.80;5.38;;;1.70;88.70;;;;;;5023820;28;20442;-80
2021/04/14 04:32:51;;;;;;;10.90;5.90;;;1.70;90.20;;;;;;5023398;28;20191;-80
2021/04/14 04:35:18;;;;;;;8.87;6.00;;;1.60;90.80;;;;;;5022857;28;20196;-80
2021/04/14 04:37:44;;;;;;;7.28;5.90;;;1.60;94.70;;;;;;5024072;28;20222;-77
2021/04/14 04:40:09;;;;;;;7.73;6.00;;;1.60;95.90;;;;;;5025467;28;20192;-79
2021/04/14 04:42:35;;;;;;;8.50;5.97;;;1.70;94.90;;;;;;5030805;28;20439;-80
2021/04/14 04:45:02;;;;;;;11.33;6.30;;;1.60;94.20;;;;;;5027896;28;20441;-79
2021/04/14 04:47:27;;;;;;;10.70;6.43;;;1.60;94.60;;;;;;5031566;28;20619;-80
2021/04/14 04:49:53;;;;;;;9.13;6.67;;;1.60;97.50;;;;;;5030333;28;20205;-79
2021/04/14 04:52:19;;;;;;;9.23;6.90;;;1.70;99.90;;;;;;5031432;28;20203;-79
2021/04/14 04:54:45;;;;;;;11.50;6.90;;;1.70;99.90;;;;;;5028962;28;20532;-79
2021/04/14 04:57:10;;;;;;;12.00;7.63;;;1.70;99.90;;;;;;5031099;28;20185;-76
2021/04/14 04:59:36;;;;;;;9.37;7.07;;;1.80;99.90;;;;;;5030875;28;20185;-78
2021/04/14 05:02:02;;;;;;;8.90;7.10;;;1.80;99.90;;;;;;5029513;28;20657;-78
2021/04/14 05:04:28;;;;;;;9.90;7.13;;;1.80;99.90;;;;;;5030868;28;20596;-78
2021/04/14 05:06:54;;;;;;;11.18;7.28;;;1.90;99.90;;;;;;5034693;28;20273;-78
2021/04/14 05:09:20;;;;;;;8.73;6.73;;;1.90;99.90;;;;;;5028938;28;20216;-79
2021/04/14 05:11:49;;;;;;;15.02;7.00;;;2.00;98.10;;;;;;5029038;28;20242;-79
2021/04/14 05:14:15;;;;;;;7.90;6.57;;;2.00;94.60;;;;;;5026617;28;20268;-78
2021/04/14 05:16:41;;;;;;;9.30;6.80;;;2.10;93.40;;;;;;5027567;28;20193;-78
2021/04/14 05:19:06;;;;;;;8.47;6.70;;;2.10;90.80;;;;;;5028389;28;20189;-78
2021/04/14 05:21:33;;;;;;;9.50;6.47;;;2.10;83.60;;;;;;5029403;28;20741;-76
2021/04/14 05:23:59;;;;;;;10.15;6.60;;;2.20;80.60;;;;;;5028102;28;20670;-78
2021/04/14 05:26:26;;;;;;;11.53;6.10;;;2.30;72.60;;;;;;5030230;28;20194;-78
2021/04/14 05:28:52;;;;;;;8.23;5.68;;;2.40;59.70;;;;;;5028803;28;20185;-78
2021/04/14 05:31:18;;;;;;;10.63;6.10;;;2.50;53.20;;;;;;5024828;28;20204;-78
2021/04/14 05:33:44;;;;;;;7.57;6.05;;;2.60;45.10;;;;;;5029904;28;20194;-78
2021/04/14 05:36:10;;;;;;;7.13;5.47;;;2.60;40.20;;;;;;5033504;28;20190;-78
2021/04/14 05:38:35;;;;;;;9.80;5.93;;;2.70;34.80;;;;;;5029968;28;20182;-72
2021/04/14 05:41:01;;;;;;;6.80;5.00;;;2.80;24.10;;;;;;5032346;28;20826;-77
2021/04/14 05:43:31;;;;;;;9.43;5.63;;;2.80;19.20;;;;;;5032741;28;20933;-77
2021/04/14 05:46:00;;;;;;;7.88;5.70;;;3.00;6.50;;;;;;5033548;28;20512;-77
2021/04/14 05:48:27;;;;;;;8.40;5.60;;;3.00;2.30;;;;;;5032843;28;20658;-75
2021/04/14 05:50:55;;;;;;;7.57;5.45;;;3.00;1.00;;;;;;5013997;28;20516;-64
2021/04/14 05:53:21;;;;;;;7.78;5.30;;;3.10;1.00;;;;;;5032103;28;20179;-64
2021/04/14 05:55:47;;;;;;;5.80;5.20;;;3.20;1.00;;;;;;5032023;28;20165;-65
2021/04/14 05:58:13;;;;;;;7.57;5.75;;;3.20;1.00;;;;;;5028511;28;20201;-70
2021/04/14 06:00:39;;;;;;;9.52;5.88;;;3.20;1.00;;;;;;5014671;28;20198;-70
2021/04/14 06:03:05;;;;;;;8.07;5.97;;;3.20;1.00;;;;;;5030010;28;20193;-70
2021/04/14 06:05:31;;;;;;;8.73;5.70;;;3.30;1.00;;;;;;5031951;28;20182;-70
2021/04/14 06:07:56;;;;;;;8.90;5.47;;;3.40;1.00;;;;;;5037992;28;20208;-70
2021/04/14 06:10:23;;;;;;;7.67;5.47;;;3.40;1.00;;;;;;5031949;28;20686;-70
2021/04/14 06:12:50;;;;;;;9.20;5.78;;;3.40;1.00;;;;;;5031924;28;20244;-70
2021/04/14 06:15:20;;;;;;;9.30;6.00;;;3.40;1.00;;;;;;5030288;28;20174;-70
2021/04/14 06:17:45;;;;;;;7.78;5.90;;;3.50;1.00;;;;;;5021225;28;20235;-70
2021/04/14 06:20:14;;;;;;;7.70;6.20;;;3.60;1.00;;;;;;5031504;28;20186;-70
2021/04/14 06:22:39;;;;;;;9.18;5.53;;;3.50;1.00;;;;;;5031885;28;20185;-70
2021/04/14 06:25:09;;;;;;;9.53;6.40;;;3.60;1.00;;;;;;5063386;28;20527;-70
2021/04/14 06:28:08;;;;;;;8.45;5.30;;;3.60;1.00;;;;;;5031336;28;20370;-70
2021/04/14 06:30:26;;;;;;;11.20;6.55;;;3.70;1.00;;;;;;5054438;28;20193;-69
2021/04/14 06:32:52;;;;;;;9.13;6.67;;;3.70;1.00;;;;;;5031597;28;20174;-69
2021/04/14 06:35:19;;;;;;;17.83;7.00;;;3.70;1.00;;;;;;5050728;28;20981;-69
2021/04/14 06:37:44;;;;;;;8.65;6.50;;;3.80;1.00;;;;;;5028600;28;20429;-69
2021/04/14 06:40:50;;;;;;;11.10;6.37;;;3.90;1.00;;;;;;5029837;28;20220;-70
2021/04/14 06:43:45;;;;;;;9.50;7.88;;;3.90;1.00;;;;;;5030341;28;20293;-70
2021/04/14 06:46:18;;;;;;;11.90;7.65;;;4.10;1.00;;;;;;5030380;28;20187;-70
2021/04/14 06:49:02;;;;;;;10.77;6.80;;;4.10;1.00;;;;;;5031162;28;20209;-70
2021/04/14 06:51:41;;;;;;;11.75;7.30;;;4.20;1.00;;;;;;5030637;28;20188;-65
2021/04/14 06:54:17;;;;;;;12.50;8.10;;;4.20;1.00;;;;;;5030509;28;20191;-65
2021/04/14 06:56:44;;;;;;;8.50;6.60;;;4.30;1.00;;;;;;5018487;28;20190;-70
2021/04/14 06:59:20;;;;;;;9.93;6.38;;;4.40;1.00;;;;;;5029056;28;20283;-67
2021/04/14 07:01:55;;;;;;;7.40;6.47;;;4.50;1.00;;;;;;5026817;28;20268;-72
2021/04/14 07:04:44;;;;;;;8.40;7.32;;;4.50;1.00;;;;;;5028332;28;20174;-72
2021/04/14 07:07:15;;;;;;;9.10;6.80;;;4.70;1.00;;;;;;5037812;28;20226;-65
2021/04/14 07:09:44;;;;;;;9.40;6.93;;;4.90;1.00;;;;;;5027672;28;20261;-66
2021/04/14 07:12:14;;;;;;;10.85;6.95;;;5.10;1.00;;;;;;5029764;28;20178;-77
2021/04/14 07:14:40;;;;;;;9.20;6.50;;;5.20;1.00;;;;;;5031881;28;20175;-82
2021/04/14 07:17:20;;;;;;;11.43;7.28;;;5.30;99.90;;;;;;5033028;28;20562;-83
2021/04/14 07:19:55;;;;;;;13.05;6.90;;;5.30;99.90;;;;;;5032575;28;20694;-82
2021/04/14 07:22:40;;;;;;;11.55;6.72;;;5.50;99.90;;;;;;5023958;28;20230;-84
2021/04/14 07:25:15;;;;;;;13.48;7.80;;;5.60;69.60;;;;;;5027224;28;20258;-74
2021/04/14 07:27:59;;;;;;;8.45;6.93;;;5.60;1.00;;;;;;5023627;28;20211;-75
2021/04/14 07:30:37;;;;;;;9.18;6.00;;;5.60;1.00;;;;;;5030188;28;20174;-75
2021/04/14 07:33:35;;;;;;;9.38;6.30;;;5.70;99.90;;;;;;5031390;28;20387;-74
2021/04/14 07:36:19;;;;;;;7.72;6.53;;;5.60;99.90;;;;;;5029940;28;20192;-78
2021/04/14 07:39:18;;;;;;;12.73;6.30;;;5.70;99.90;;;;;;5029580;28;20634;-75
2021/04/14 07:42:12;;;;;;;11.38;5.50;;;5.90;1.00;;;;;;5021972;28;20179;-79
2021/04/14 07:45:06;;;;;;;14.48;5.85;;;6.00;97.40;;;;;;5022928;28;20232;-77
2021/04/14 07:47:33;;;;;;;10.60;6.45;;;6.00;1.00;;;;;;5029347;28;20199;-81
2021/04/14 07:49:59;;;;;;;11.27;6.28;;;6.10;99.90;;;;;;5025873;28;20346;-82
2021/04/14 07:52:30;;;;;;;10.53;5.60;;;6.20;99.90;;;;;;5030131;28;20294;-76
2021/04/14 07:54:56;;;;;;;9.93;5.80;;;6.40;1.00;;;;;;5027799;28;20270;-81
2021/04/14 07:57:38;;;;;;;10.38;6.28;;;6.60;1.00;;;;;;5028997;28;20311;-75
2021/04/14 08:00:17;;;;;;;6.40;5.70;;;6.60;1.00;;;;;;5031490;28;20680;-77
2021/04/14 08:02:42;;;;;;;7.20;5.50;;;6.70;1.00;;;;;;5017636;28;20180;-80
2021/04/14 08:05:20;;;;;;;10.20;5.40;;;6.70;1.00;;;;;;5030435;28;20422;-81
2021/04/14 08:07:46;;;;;;;11.88;6.00;;;6.90;1.00;;;;;;5031022;28;20246;-81
2021/04/14 08:10:25;;;;;;;10.60;5.60;;;6.90;99.90;;;;;;5030554;28;20197;-78
2021/04/14 08:12:56;;;;;;;7.45;5.50;;;6.80;1.00;;;;;;5012763;28;20194;-80
2021/04/14 08:15:30;;;;;;;10.20;6.47;;;6.60;99.90;;;;;;5026453;28;20411;-82
2021/04/14 08:18:14;;;;;;;8.93;5.78;;;6.70;99.90;;;;;;5018895;28;20179;-82
2021/04/14 08:20:41;;;;;;;8.25;5.20;;;6.80;99.90;;;;;;5058746;28;20188;-76
2021/04/14 08:23:14;;;;;;;9.20;5.90;;;7.00;1.00;;;;;;5045376;28;20186;-78
2021/04/14 08:25:52;;;;;;;6.50;4.70;;;7.00;1.00;;;;;;5030882;28;20419;-77
2021/04/14 08:28:44;;;;;;;9.23;4.72;;;7.00;1.00;;;;;;5054640;28;20307;-75
2021/04/14 08:34:31;;;;;;;9.93;4.38;;;7.10;99.90;;;;;;5029398;28;20195;-75
2021/04/14 08:37:03;;;;;;;4.05;3.72;;;7.20;90.90;;;;;;5027649;28;20181;-77
2021/04/14 08:39:39;;;;;;;6.10;4.47;;;7.20;73.90;;;;;;5029610;28;20185;-77
2021/04/14 08:42:11;;;;;;;5.70;4.00;;;7.30;1.00;;;;;;5028468;28;20188;-74
2021/04/14 08:44:39;;;;;;;5.05;3.80;;;7.40;1.00;;;;;;5029710;28;20430;-73
2021/04/14 08:47:18;;;;;;;6.03;3.97;;;7.50;1.00;;;;;;5028429;28;20602;-74
2021/04/14 08:49:50;;;;;;;7.93;5.33;;;7.80;1.00;;;;;;5025812;28;20916;-74
2021/04/14 08:52:19;;;;;;;5.43;3.70;;;8.00;1.00;;;;;;5028963;28;20825;-73
2021/04/14 08:54:46;;;;;;;7.40;4.50;;;8.00;1.00;;;;;;5028720;28;20873;-73
2021/04/14 08:57:11;;;;;;;5.03;4.53;;;8.10;1.00;;;;;;5027055;28;20440;-72
2021/04/14 08:59:39;;;;;;;5.90;4.00;;;8.30;1.00;;;;;;5033515;28;20435;-73
2021/04/14 09:02:07;;;;;;;6.20;4.67;;;8.30;1.00;;;;;;5028053;28;20217;-74
2021/04/14 09:04:34;;;;;;;4.57;4.17;;;8.40;1.00;;;;;;5020203;28;20425;-72
2021/04/14 09:07:01;;;;;;;7.13;4.03;;;8.70;1.00;;;;;;5027980;28;20489;-74
2021/04/14 09:09:29;;;;;;;4.10;3.47;;;9.40;1.00;;;;;;5032192;28;20441;-73
2021/04/14 09:12:06;;;;;;;4.87;4.33;;;9.90;99.90;;;;;;5034597;28;20425;-75
2021/04/14 09:14:33;;;;;;;6.00;4.30;;;9.90;99.90;;;;;;5034629;28;20433;-74
2021/04/14 09:17:06;;;;;;;6.10;3.93;;;9.60;99.90;;;;;;5033156;28;20428;-74
2021/04/14 09:19:35;;;;;;;4.33;3.50;;;9.40;99.90;;;;;;5033480;28;20455;-74
2021/04/14 09:22:16;;;;;;;5.10;3.40;;;9.70;99.90;;;;;;5034858;28;20409;-73
2021/04/14 09:24:53;;;;;;;4.33;3.53;;;10.60;99.90;;;;;;5035122;28;20459;-72
2021/04/14 09:27:34;;;;;;;5.20;3.80;;;11.50;99.90;;;;;;5034245;28;20860;-73
2021/04/14 09:30:26;;;;;;;3.97;3.50;;;11.60;99.90;;;;;;5034671;28;20433;-72
2021/04/14 09:32:53;;;;;;;5.37;3.90;;;11.30;99.90;;;;;;5027785;28;20772;-75
2021/04/14 09:35:28;;;;;;;5.20;3.90;;;11.00;99.90;;;;;;5034452;28;20570;-75
2021/04/14 09:44:46;;;;;;;5.20;3.70;;;10.00;99.90;;;;;;5249277;22;20487;-64
2021/04/14 09:47:32;;;;;;;5.20;3.97;;;10.40;99.90;;;;;;5054246;28;20456;-64
2021/04/14 09:50:12;;;;;;;5.40;3.97;;;11.00;99.90;;;;;;5054067;28;20509;-64
2021/04/14 09:52:50;;;;;;;4.23;3.93;;;10.80;99.90;;;;;;5052696;28;20435;-65
2021/04/14 09:55:50;;;;;;;6.47;3.77;;;10.50;99.90;;;;;;5054708;28;20439;-63
2021/04/14 09:58:46;;;;;;;5.57;3.50;;;10.40;99.90;;;;;;5040653;28;20431;-63
2021/04/14 10:01:28;;;;;;;3.80;3.50;;;10.50;99.90;;;;;;5053445;28;20424;-63
2021/04/14 10:04:00;;;;;;;5.50;3.60;;;10.70;99.90;;;;;;5054039;28;20415;-63
2021/04/14 10:06:26;;;;;;;5.43;3.57;;;11.30;99.90;;;;;;5051302;28;20455;-63
2021/04/14 10:09:01;;;;;;;4.20;3.87;;;11.90;99.90;;;;;;5054298;28;20503;-64
2021/04/14 10:11:33;;;;;;;5.70;3.93;;;12.10;99.90;;;;;;5053261;28;20473;-63
2021/04/14 10:14:21;;;;;;;4.13;3.73;;;11.60;99.90;;;;;;5050961;28;20416;-64
2021/04/14 10:16:48;;;;;;;3.77;2.80;;;11.30;99.90;;;;;;5047446;28;20465;-64
2021/04/14 10:19:26;;;;;;;3.60;3.30;;;11.80;99.90;;;;;;5052951;28;21016;-63
2021/04/14 10:21:53;;;;;;;5.57;3.07;;;12.10;99.90;;;;;;5049975;28;20436;-63
2021/04/14 10:24:18;;;;;;;3.73;3.47;;;12.90;99.90;;;;;;5051213;28;20777;-63
2021/04/14 10:26:51;;;;;;;3.80;3.43;;;12.60;99.90;;;;;;5050258;28;20452;-64
2021/04/14 10:29:20;;;;;;;4.07;3.23;;;12.20;99.90;;;;;;5050588;28;20430;-63
2021/04/14 10:31:46;;;;;;;2.87;2.67;;;12.10;99.90;;;;;;5049341;28;20802;-63
2021/04/14 10:34:22;;;;;;;2.80;2.60;;;11.90;99.90;;;;;;5050937;28;20439;-64
2021/04/14 10:36:48;;;;;;;5.33;3.03;;;12.20;99.90;;;;;;5047397;28;20424;-65
2021/04/14 10:39:38;;;;;;;3.17;2.97;;;12.70;99.90;;;;;;5050764;28;20432;-63
2021/04/14 10:42:12;;;;;;;3.70;3.40;;;13.10;99.90;;;;;;5047113;28;21874;-64
2021/04/14 10:44:37;;;;;;;3.50;2.73;;;13.80;99.90;;;;;;5045942;28;20478;-62
2021/04/14 10:47:33;;;;;;;3.40;3.10;;;13.70;99.90;;;;;;5045138;28;20521;-65
2021/04/14 10:50:17;;;;;;;3.23;3.03;;;13.40;99.90;;;;;;5044743;28;20538;-71
2021/04/14 10:52:44;;;;;;;3.77;3.37;;;12.70;99.90;;;;;;5041856;28;20495;-69
2021/04/14 10:55:17;;;;;;;3.63;3.33;;;12.70;99.90;;;;;;5050154;28;20910;-69
2021/04/14 10:57:46;;;;;;;3.13;2.93;;;12.30;99.90;;;;;;5049831;28;20428;-69
2021/04/14 11:00:30;;;;;;;4.20;3.13;;;11.80;99.90;;;;;;5050113;28;20416;-69
2021/04/14 11:03:00;;;;;;;3.23;3.03;;;11.40;99.90;;;;;;5049914;28;20432;-69
2021/04/14 11:05:28;;;;;;;3.50;3.20;;;11.00;99.90;;;;;;5049525;28;20420;-69
2021/04/14 11:07:55;;;;;;;3.43;3.13;;;10.70;99.90;;;;;;5049843;28;20460;-69
2021/04/14 11:10:36;;;;;;;5.27;3.20;;;10.80;99.90;;;;;;5047238;28;20417;-69
2021/04/14 11:13:04;;;;;;;4.57;3.13;;;11.40;99.90;;;;;;5048497;28;20475;-68
2021/04/14 11:15:39;;;;;;;3.27;3.07;;;11.80;99.90;;;;;;5044814;28;20467;-63
2021/04/14 11:18:08;;;;;;;3.70;3.40;;;12.30;99.90;;;;;;5046808;28;20434;-63
2021/04/14 11:21:08;;;;;;;6.23;4.00;;;11.70;99.90;;;;;;5046052;28;20415;-69
2021/04/14 11:23:39;;;;;;;4.03;3.27;;;11.40;99.90;;;;;;5046279;28;20767;-68
2021/04/14 11:26:13;;;;;;;3.10;2.80;;;11.30;99.90;;;;;;5046036;28;20498;-68
2021/04/14 11:28:50;;;;;;;4.33;3.13;;;11.20;99.90;;;;;;5038768;28;20423;-63
2021/04/14 11:31:38;;;;;;;3.33;3.03;;;11.60;99.90;;;;;;5039598;28;20938;-62
2021/04/14 11:34:13;;;;;;;4.47;2.80;;;11.90;99.90;;;;;;5042804;28;20432;-69
2021/04/14 11:36:39;;;;;;;3.40;2.70;;;11.90;99.90;;;;;;5048905;28;20628;-69
2021/04/14 11:39:11;;;;;;;6.33;4.00;;;11.60;99.90;;;;;;5035275;28;20786;-69
2021/04/14 11:41:39;;;;;;;3.17;2.97;;;11.30;99.90;;;;;;5040044;28;20491;-69
2021/04/14 11:44:21;;;;;;;3.57;3.27;;;11.30;99.90;;;;;;5042799;28;20931;-68
2021/04/14 11:47:02;;;;;;;5.10;3.53;;;11.40;99.90;;;;;;5046540;28;20517;-64
2021/04/14 11:49:31;;;;;;;4.17;2.97;;;11.70;99.90;;;;;;5045224;28;20416;-65
2021/04/14 11:51:59;;;;;;;3.57;3.27;;;11.70;99.90;;;;;;5047846;28;20424;-64
2021/04/14 11:54:37;;;;;;;3.90;3.10;;;11.60;99.90;;;;;;5047103;28;20440;-65
2021/04/14 11:57:42;;;;;;;4.80;3.20;;;11.50;99.90;;;;;;5048635;28;20416;-65
2021/04/14 12:00:18;;;;;;;3.40;3.10;;;11.60;99.90;;;;;;4987209;28;20423;-64
2021/04/14 12:02:46;;;;;;;3.27;2.97;;;11.80;99.90;;;;;;5033255;28;20511;-64
2021/04/14 12:05:12;;;;;;;5.00;4.70;;;12.00;99.90;;;;;;5048259;28;20752;-65
2021/04/14 12:07:38;;;;;;;3.37;3.07;;;12.10;99.90;;;;;;5048698;28;20474;-64
2021/04/14 12:10:06;;;;;;;3.40;3.10;;;12.00;99.90;;;;;;5039052;28;21117;-66
2021/04/14 12:12:32;;;;;;;3.50;3.30;;;11.40;99.90;;;;;;5047900;28;20562;-69
2021/04/14 12:14:58;;;;;;;3.80;3.10;;;11.20;99.90;;;;;;5046085;28;20882;-64
2021/04/14 12:17:24;;;;;;;3.40;3.10;;;10.80;99.90;;;;;;5045273;28;20557;-70
2021/04/14 12:19:50;;;;;;;3.67;3.37;;;10.60;99.90;;;;;;5043803;28;20190;-62
2021/04/14 12:22:16;;;;;;;6.00;3.87;;;10.60;99.90;;;;;;5046784;28;20936;-64
2021/04/14 12:24:43;;;;;;;4.30;3.30;;;10.60;99.90;;;;;;5046389;28;20486;-69
2021/04/14 12:27:09;;;;;;;4.83;3.33;;;10.60;99.90;;;;;;5047129;28;20471;-71
2021/04/14 12:29:36;;;;;;;2.80;2.60;;;10.60;99.90;;;;;;5046841;28;20891;-69
2021/04/14 12:32:01;;;;;;;5.03;2.93;;;10.50;99.90;;;;;;5044899;28;20444;-68
2021/04/14 12:34:27;;;;;;;3.73;3.00;;;10.40;99.90;;;;;;5046128;28;20420;-68
2021/04/14 12:36:53;;;;;;;3.93;3.30;;;10.50;99.90;;;;;;5044908;28;20671;-71
2021/04/14 12:39:18;;;;;;;3.47;2.90;;;10.40;99.90;;;;;;5045838;28;20232;-68
2021/04/14 12:41:44;;;;;;;3.10;2.80;;;10.30;99.90;;;;;;5039215;28;20201;-63
2021/04/14 12:44:10;;;;;;;3.13;2.60;;;10.50;99.90;;;;;;5039513;28;20237;-70
2021/04/14 12:46:41;;;;;;;2.93;2.60;;;10.90;99.90;;;;;;5039676;28;20205;-69
2021/04/14 12:49:12;;;;;;;3.30;2.93;;;11.50;99.90;;;;;;5035251;28;20217;-63
2021/04/14 12:51:58;;;;;;;2.80;2.60;;;12.00;99.90;;;;;;5044048;28;20416;-65
2021/04/14 12:54:32;;;;;;;4.10;2.77;;;12.40;99.90;;;;;;5045891;28;20494;-68
2021/04/14 12:57:04;;;;;;;4.07;3.30;;;12.40;99.90;;;;;;5041764;28;20474;-68
2021/04/14 12:59:38;;;;;;;3.30;3.10;;;12.20;99.90;;;;;;5046085;28;21144;-68
2021/04/14 13:02:13;;;;;;;3.00;2.80;;;12.20;99.90;;;;;;5043441;28;20423;-68
2021/04/14 13:05:00;;;;;;;3.27;3.00;;;12.00;99.90;;;;;;5044617;28;20416;-63
2021/04/14 13:07:49;;;;;;;3.10;2.80;;;11.90;99.90;;;;;;5046263;28;20961;-63
2021/04/14 13:10:17;;;;;;;4.43;2.97;;;11.70;99.90;;;;;;5016875;28;20432;-65
2021/04/14 13:12:42;;;;;;;3.90;2.90;;;11.50;99.90;;;;;;5044612;28;20436;-64
2021/04/14 13:15:12;;;;;;;3.13;2.80;;;11.20;99.90;;;;;;5044668;28;20448;-65
2021/04/14 13:17:43;;;;;;;3.10;2.90;;;10.80;99.90;;;;;;5047916;28;20746;-63
2021/04/14 13:20:10;;;;;;;3.73;3.00;;;10.60;99.90;;;;;;5034776;28;20840;-65
2021/04/14 13:22:53;;;;;;;2.80;2.60;;;10.30;99.90;;;;;;5047048;28;20771;-63
2021/04/14 13:25:35;;;;;;;6.03;2.37;;;10.20;99.90;;;;;;5046697;28;20559;-64